createdAt,value
2023-01-02T00:00:03.075Z,62.91
2023-01-02T00:01:03.252Z,62.91
2023-01-02T00:02:03.401Z,62.91
2023-01-02T00:03:03.641Z,63.01
2023-01-02T00:04:03.821Z,62.81
2023-01-02T00:05:03.919Z,63.01
2023-01-02T00:06:04.121Z,63.01
2023-01-02T00:07:04.300Z,63.01
2023-01-02T00:08:04.477Z,62.91
2023-01-02T00:09:04.669Z,63.01
2023-01-02T00:10:04.843Z,62.91
2023-01-02T00:11:05.010Z,62.91
2023-01-02T00:12:05.204Z,63.01
2023-01-02T00:13:05.392Z,63.01
2023-01-02T00:14:05.604Z,62.71
2023-01-02T00:15:05.740Z,62.91
2023-01-02T00:16:05.961Z,62.91
2023-01-02T00:17:06.108Z,63.01
2023-01-02T00:18:06.306Z,63.11
2023-01-02T00:19:06.485Z,63.11
2023-01-02T00:20:06.667Z,63.11
2023-01-02T00:21:06.831Z,63.11
2023-01-02T00:22:07.027Z,63.01
2023-01-02T00:23:07.234Z,63.01
2023-01-02T00:24:07.384Z,62.91
2023-01-02T00:25:07.544Z,62.81
2023-01-02T00:26:07.705Z,62.81
2023-01-02T00:27:07.880Z,62.71
2023-01-02T00:28:08.062Z,62.64
2023-01-02T00:29:08.274Z,62.71
2023-01-02T00:30:08.422Z,62.71
2023-01-02T00:31:08.645Z,62.71
2023-01-02T00:32:08.827Z,62.81
2023-01-02T00:33:08.997Z,62.91
2023-01-02T00:34:09.129Z,62.81
2023-01-02T00:35:09.320Z,62.71
2023-01-02T00:36:09.447Z,62.71
2023-01-02T00:37:09.644Z,62.71
2023-01-02T00:38:09.793Z,62.81
2023-01-02T00:39:09.978Z,62.84
2023-01-02T00:40:10.147Z,62.84
2023-01-02T00:41:10.337Z,62.84
2023-01-02T00:42:10.512Z,62.81
2023-01-02T00:43:10.658Z,62.91
2023-01-02T00:44:10.858Z,62.94
2023-01-02T00:45:11.005Z,62.94
2023-01-02T00:46:12.339Z,63.01
2023-01-02T00:47:11.411Z,63.04
2023-01-02T00:48:11.549Z,63.01
2023-01-02T00:49:11.729Z,63.04
2023-01-02T00:50:11.919Z,62.94
2023-01-02T00:51:12.101Z,63.01
2023-01-02T00:52:12.282Z,63.04
2023-01-02T00:53:12.411Z,63.14
2023-01-02T00:54:12.604Z,63.14
2023-01-02T00:55:12.779Z,63.14
2023-01-02T00:56:12.979Z,63.14
2023-01-02T00:57:13.162Z,63.14
2023-01-02T00:58:13.302Z,63.14
2023-01-02T00:59:13.507Z,63.14
2023-01-02T01:00:18.375Z,63.14
2023-01-02T01:01:15.035Z,63.24
2023-01-02T01:02:14.133Z,63.24
2023-01-02T01:03:14.220Z,63.24
2023-01-02T01:04:14.396Z,63.24
2023-01-02T01:05:14.575Z,63.24
2023-01-02T01:06:14.761Z,63.21
2023-01-02T01:07:14.962Z,63.24
2023-01-02T01:08:15.106Z,63.24
2023-01-02T01:09:15.247Z,63.24
2023-01-02T01:10:15.439Z,63.24
2023-01-02T01:11:15.634Z,63.24
2023-01-02T01:12:15.806Z,63.24
2023-01-02T01:13:15.991Z,63.24
2023-01-02T01:14:16.166Z,63.24
2023-01-02T01:15:16.365Z,63.34
2023-01-02T01:16:16.582Z,63.34
2023-01-02T01:17:16.737Z,63.24
2023-01-02T01:18:16.886Z,63.34
2023-01-02T01:19:17.070Z,63.34
2023-01-02T01:20:17.204Z,63.34
2023-01-02T01:21:17.399Z,63.34
2023-01-02T01:22:17.592Z,63.34
2023-01-02T01:23:17.738Z,63.34
2023-01-02T01:24:17.942Z,63.34
2023-01-02T01:25:18.084Z,63.34
2023-01-02T01:26:18.282Z,63.34
2023-01-02T01:27:18.535Z,63.45
2023-01-02T01:28:18.621Z,63.24
2023-01-02T01:29:18.805Z,63.34
2023-01-02T01:30:18.986Z,63.45
2023-01-02T01:31:19.205Z,63.45
2023-01-02T01:32:19.341Z,63.34
2023-01-02T01:33:19.487Z,63.45
2023-01-02T01:34:19.668Z,63.34
2023-01-02T01:35:19.853Z,63.34
2023-01-02T01:36:20.029Z,63.45
2023-01-02T01:37:20.227Z,63.54
2023-01-02T01:38:20.379Z,63.34
2023-01-02T01:39:20.555Z,63.45
2023-01-02T01:40:20.745Z,63.54
2023-01-02T01:41:20.956Z,63.54
2023-01-02T01:42:21.141Z,63.45
2023-01-02T01:43:21.280Z,63.54
2023-01-02T01:44:21.476Z,63.45
2023-01-02T01:45:21.671Z,63.45
2023-01-02T01:46:21.849Z,63.45
2023-01-02T01:47:22.075Z,63.45
2023-01-02T01:48:22.250Z,63.45
2023-01-02T01:49:22.383Z,63.34
2023-01-02T01:50:22.592Z,63.45
2023-01-02T01:51:22.751Z,63.24
2023-01-02T01:52:22.966Z,63.24
2023-01-02T01:53:23.100Z,63.04
2023-01-02T01:54:23.283Z,63.14
2023-01-02T01:55:23.471Z,63.14
2023-01-02T01:56:23.660Z,63.14
2023-01-02T01:57:23.835Z,63.14
2023-01-02T01:58:23.992Z,63.14
2023-01-02T01:59:24.157Z,63.04
2023-01-02T02:00:24.330Z,62.94
2023-01-02T02:01:24.567Z,63.04
2023-01-02T02:02:24.828Z,62.94
2023-01-02T02:03:24.855Z,63.04
2023-01-02T02:04:25.029Z,63.04
2023-01-02T02:05:25.225Z,62.94
2023-01-02T02:06:25.392Z,62.94
2023-01-02T02:07:25.646Z,63.04
2023-01-02T02:08:25.751Z,62.94
2023-01-02T02:09:25.951Z,63.04
2023-01-02T02:10:26.125Z,62.74
2023-01-02T02:11:26.304Z,62.94
2023-01-02T02:12:28.367Z,62.74
2023-01-02T02:13:26.656Z,62.74
2023-01-02T02:14:26.840Z,62.74
2023-01-02T02:15:27.025Z,62.74
2023-01-02T02:16:27.267Z,62.84
2023-01-02T02:17:27.417Z,62.54
2023-01-02T02:18:27.594Z,62.54
2023-01-02T02:19:27.734Z,62.24
2023-01-02T02:20:27.918Z,62.64
2023-01-02T02:21:28.077Z,62.64
2023-01-02T02:22:28.280Z,62.54
2023-01-02T02:23:28.451Z,62.64
2023-01-02T02:24:28.582Z,62.74
2023-01-02T02:25:28.778Z,62.74
2023-01-02T02:26:28.970Z,62.74
2023-01-02T02:27:29.161Z,62.54
2023-01-02T02:28:29.304Z,62.54
2023-01-02T02:29:29.480Z,62.24
2023-01-02T02:30:29.674Z,62.34
2023-01-02T02:31:29.866Z,62.24
2023-01-02T02:32:30.036Z,62.24
2023-01-02T02:33:30.174Z,62.24
2023-01-02T02:34:30.366Z,62.13
2023-01-02T02:35:30.538Z,62.13
2023-01-02T02:36:30.736Z,62.04
2023-01-02T02:37:30.890Z,61.93
2023-01-02T02:38:31.073Z,62.04
2023-01-02T02:39:31.255Z,62.13
2023-01-02T02:40:31.477Z,62.13
2023-01-02T02:41:31.631Z,62.13
2023-01-02T02:42:31.758Z,62.13
2023-01-02T02:43:31.955Z,62.24
2023-01-02T02:44:32.133Z,61.93
2023-01-02T02:45:32.381Z,61.73
2023-01-02T02:46:32.474Z,61.73
2023-01-02T02:47:32.665Z,61.83
2023-01-02T02:48:32.842Z,61.73
2023-01-02T02:49:33.056Z,61.73
2023-01-02T02:50:33.226Z,61.93
2023-01-02T02:51:33.378Z,61.83
2023-01-02T02:52:33.562Z,61.83
2023-01-02T02:53:33.723Z,61.93
2023-01-02T02:54:33.905Z,62.04
2023-01-02T02:55:34.108Z,62.04
2023-01-02T02:56:34.250Z,61.93
2023-01-02T02:57:34.453Z,61.93
2023-01-02T02:58:34.630Z,61.83
2023-01-02T02:59:34.844Z,61.93
2023-01-02T03:00:34.950Z,61.73
2023-01-02T03:01:35.241Z,61.83
2023-01-02T03:02:35.370Z,61.63
2023-01-02T03:03:35.533Z,61.83
2023-01-02T03:04:35.720Z,61.93
2023-01-02T03:05:35.863Z,61.63
2023-01-02T03:06:36.053Z,61.83
2023-01-02T03:07:36.230Z,61.83
2023-01-02T03:08:36.407Z,61.83
2023-01-02T03:09:36.613Z,61.83
2023-01-02T03:10:36.760Z,61.30
2023-01-02T03:11:36.975Z,61.63
2023-01-02T03:12:37.093Z,61.60
2023-01-02T03:13:41.780Z,61.30
2023-01-02T03:14:38.472Z,61.43
2023-01-02T03:15:37.691Z,61.33
2023-01-02T03:16:37.874Z,61.53
2023-01-02T03:17:38.005Z,61.63
2023-01-02T03:18:38.164Z,61.60
2023-01-02T03:19:38.348Z,61.60
2023-01-02T03:20:38.545Z,61.50
2023-01-02T03:21:38.715Z,61.60
2023-01-02T03:22:38.881Z,61.60
2023-01-02T03:23:39.066Z,61.40
2023-01-02T03:24:39.252Z,61.30
2023-01-02T03:25:39.413Z,61.33
2023-01-02T03:26:39.562Z,61.30
2023-01-02T03:27:39.747Z,61.40
2023-01-02T03:28:39.916Z,61.40
2023-01-02T03:29:40.108Z,61.30
2023-01-02T03:30:40.339Z,60.80
2023-01-02T03:31:40.476Z,60.89
2023-01-02T03:32:40.648Z,61.20
2023-01-02T03:33:40.819Z,61.00
2023-01-02T03:34:41.034Z,61.10
2023-01-02T03:35:41.179Z,60.80
2023-01-02T03:36:41.375Z,60.89
2023-01-02T03:37:41.528Z,60.89
2023-01-02T03:38:41.677Z,60.89
2023-01-02T03:39:41.917Z,60.69
2023-01-02T03:40:42.050Z,60.49
2023-01-02T03:41:42.233Z,60.49
2023-01-02T03:42:42.416Z,60.49
2023-01-02T03:43:42.593Z,60.60
2023-01-02T03:44:42.816Z,60.49
2023-01-02T03:45:43.016Z,60.49
2023-01-02T03:46:43.136Z,60.39
2023-01-02T03:47:43.331Z,60.39
2023-01-02T03:48:43.501Z,60.29
2023-01-02T03:49:43.719Z,60.39
2023-01-02T03:50:43.942Z,60.19
2023-01-02T03:51:44.048Z,60.09
2023-01-02T03:52:44.241Z,59.99
2023-01-02T03:53:44.416Z,59.99
2023-01-02T03:54:44.611Z,59.89
2023-01-02T03:55:44.769Z,59.99
2023-01-02T03:56:44.912Z,59.99
2023-01-02T03:57:45.099Z,60.09
2023-01-02T03:58:45.317Z,59.59
2023-01-02T03:59:45.460Z,59.79
2023-01-02T04:00:45.635Z,59.89
2023-01-02T04:01:45.907Z,59.99
2023-01-02T04:02:46.131Z,59.99
2023-01-02T04:03:46.185Z,59.89
2023-01-02T04:04:50.603Z,59.99
2023-01-02T04:05:47.496Z,60.09
2023-01-02T04:06:46.705Z,60.09
2023-01-02T04:07:46.853Z,60.19
2023-01-02T04:08:47.030Z,60.19
2023-01-02T04:09:47.232Z,60.19
2023-01-02T04:10:48.349Z,60.09
2023-01-02T04:11:47.624Z,60.09
2023-01-02T04:12:47.764Z,60.09
2023-01-02T04:13:47.958Z,60.09
2023-01-02T04:14:48.144Z,60.09
2023-01-02T04:15:48.349Z,60.19
2023-01-02T04:16:48.498Z,59.89
2023-01-02T04:17:48.644Z,59.99
2023-01-02T04:18:48.826Z,60.09
2023-01-02T04:19:49.045Z,60.09
2023-01-02T04:20:49.179Z,59.99
2023-01-02T04:21:49.378Z,59.99
2023-01-02T04:22:49.569Z,59.99
2023-01-02T04:23:49.694Z,60.09
2023-01-02T04:24:49.860Z,59.69
2023-01-02T04:25:50.047Z,59.89
2023-01-02T04:26:50.234Z,59.89
2023-01-02T04:27:50.371Z,59.89
2023-01-02T04:28:50.549Z,59.99
2023-01-02T04:29:50.739Z,59.69
2023-01-02T04:30:50.954Z,59.79
2023-01-02T04:31:51.094Z,59.79
2023-01-02T04:32:51.276Z,59.76
2023-01-02T04:33:51.465Z,59.66
2023-01-02T04:34:51.652Z,59.56
2023-01-02T04:35:51.846Z,59.66
2023-01-02T04:36:52.011Z,59.56
2023-01-02T04:37:52.180Z,59.46
2023-01-02T04:38:52.336Z,59.69
2023-01-02T04:39:52.525Z,59.46
2023-01-02T04:40:52.692Z,59.59
2023-01-02T04:41:52.852Z,59.46
2023-01-02T04:42:53.025Z,59.59
2023-01-02T04:43:53.232Z,59.59
2023-01-02T04:44:53.380Z,59.56
2023-01-02T04:45:53.573Z,59.26
2023-01-02T04:46:53.729Z,59.46
2023-01-02T04:47:53.922Z,59.66
2023-01-02T04:48:54.148Z,59.76
2023-01-02T04:49:54.253Z,59.56
2023-01-02T04:50:54.430Z,59.76
2023-01-02T04:51:54.614Z,59.76
2023-01-02T04:52:54.799Z,59.76
2023-01-02T04:53:55.009Z,59.66
2023-01-02T04:54:55.179Z,59.66
2023-01-02T04:55:55.316Z,59.66
2023-01-02T04:56:55.514Z,59.46
2023-01-02T04:57:55.733Z,59.16
2023-01-02T04:58:55.907Z,59.26
2023-01-02T04:59:56.071Z,59.16
2023-01-02T05:00:56.259Z,59.36
2023-01-02T05:01:56.519Z,59.36
2023-01-02T05:02:56.612Z,59.36
2023-01-02T05:03:56.798Z,59.26
2023-01-02T05:04:56.980Z,59.46
2023-01-02T05:05:57.129Z,59.56
2023-01-02T05:06:57.288Z,59.56
2023-01-02T05:07:57.482Z,59.56
2023-01-02T05:08:57.653Z,59.46
2023-01-02T05:09:57.872Z,59.06
2023-01-02T05:10:57.995Z,59.26
2023-01-02T05:11:58.201Z,59.26
2023-01-02T05:12:58.373Z,58.95
2023-01-02T05:14:02.537Z,59.26
2023-01-02T05:14:59.754Z,59.26
2023-01-02T05:15:58.916Z,59.06
2023-01-02T05:16:59.038Z,58.86
2023-01-02T05:17:59.249Z,58.86
2023-01-02T05:18:59.387Z,59.16
2023-01-02T05:19:59.615Z,58.65
2023-01-02T05:20:59.758Z,58.86
2023-01-02T05:21:59.962Z,58.95
2023-01-02T05:23:00.143Z,58.55
2023-01-02T05:24:00.315Z,58.95
2023-01-02T05:25:00.544Z,59.16
2023-01-02T05:26:00.681Z,58.86
2023-01-02T05:27:00.823Z,58.86
2023-01-02T05:28:01.013Z,58.55
2023-01-02T05:29:01.212Z,58.86
2023-01-02T05:30:01.401Z,58.86
2023-01-02T05:31:01.565Z,58.95
2023-01-02T05:32:01.720Z,59.06
2023-01-02T05:33:01.905Z,58.86
2023-01-02T05:34:02.113Z,58.75
2023-01-02T05:35:02.287Z,58.75
2023-01-02T05:36:02.471Z,58.75
2023-01-02T05:37:02.660Z,58.75
2023-01-02T05:38:02.875Z,58.86
2023-01-02T05:39:03.021Z,58.86
2023-01-02T05:40:03.261Z,59.06
2023-01-02T05:41:03.399Z,58.95
2023-01-02T05:42:03.581Z,58.55
2023-01-02T05:43:03.734Z,58.45
2023-01-02T05:44:03.925Z,58.75
2023-01-02T05:45:04.131Z,58.75
2023-01-02T05:46:04.303Z,58.86
2023-01-02T05:47:04.440Z,58.15
2023-01-02T05:48:04.628Z,58.55
2023-01-02T05:49:04.825Z,58.65
2023-01-02T05:50:05.033Z,58.45
2023-01-02T05:51:05.174Z,58.55
2023-01-02T05:52:05.364Z,58.55
2023-01-02T05:53:05.540Z,58.25
2023-01-02T05:54:05.737Z,58.55
2023-01-02T05:55:05.932Z,58.65
2023-01-02T05:56:06.087Z,58.75
2023-01-02T05:57:06.254Z,58.65
2023-01-02T05:58:06.447Z,58.65
2023-01-02T05:59:06.631Z,58.65
2023-01-02T06:00:06.838Z,58.65
2023-01-02T06:01:06.979Z,58.55
2023-01-02T06:02:07.349Z,58.35
2023-01-02T06:03:07.446Z,58.45
2023-01-02T06:04:07.516Z,58.45
2023-01-02T06:05:07.719Z,57.95
2023-01-02T06:06:07.852Z,58.15
2023-01-02T06:07:08.056Z,58.35
2023-01-02T06:08:08.200Z,57.95
2023-01-02T06:09:08.395Z,58.02
2023-01-02T06:10:08.578Z,58.25
2023-01-02T06:11:08.789Z,58.25
2023-01-02T06:12:08.944Z,57.95
2023-01-02T06:13:09.141Z,57.45
2023-01-02T06:14:09.310Z,57.82
2023-01-02T06:15:09.562Z,57.75
2023-01-02T06:16:09.720Z,57.95
2023-01-02T06:17:09.841Z,57.85
2023-01-02T06:18:10.035Z,57.55
2023-01-02T06:19:10.223Z,57.52
2023-01-02T06:20:10.421Z,57.92
2023-01-02T06:21:10.557Z,57.85
2023-01-02T06:22:10.755Z,57.92
2023-01-02T06:23:10.945Z,58.12
2023-01-02T06:24:11.091Z,58.02
2023-01-02T06:25:11.289Z,58.02
2023-01-02T06:26:11.423Z,58.02
2023-01-02T06:27:11.624Z,57.95
2023-01-02T06:28:11.765Z,57.52
2023-01-02T06:29:11.975Z,57.82
2023-01-02T06:30:12.161Z,57.92
2023-01-02T06:31:12.400Z,57.72
2023-01-02T06:32:12.540Z,57.92
2023-01-02T06:33:12.685Z,57.72
2023-01-02T06:34:12.871Z,57.82
2023-01-02T06:35:13.064Z,57.72
2023-01-02T06:36:13.218Z,57.62
2023-01-02T06:37:13.362Z,57.52
2023-01-02T06:38:13.541Z,57.82
2023-01-02T06:39:13.763Z,57.72
2023-01-02T06:40:13.918Z,57.82
2023-01-02T06:41:14.095Z,57.92
2023-01-02T06:42:14.263Z,58.02
2023-01-02T06:43:14.460Z,58.02
2023-01-02T06:44:14.670Z,57.52
2023-01-02T06:45:14.848Z,57.42
2023-01-02T06:46:15.016Z,57.42
2023-01-02T06:47:15.141Z,57.72
2023-01-02T06:48:15.333Z,57.82
2023-01-02T06:49:15.552Z,57.82
2023-01-02T06:50:15.685Z,57.82
2023-01-02T06:51:15.881Z,57.82
2023-01-02T06:52:16.065Z,57.62
2023-01-02T06:53:16.245Z,57.52
2023-01-02T06:54:16.441Z,57.72
2023-01-02T06:55:16.576Z,57.52
2023-01-02T06:56:16.756Z,57.72
2023-01-02T06:57:17.135Z,57.72
2023-01-02T06:58:19.513Z,57.82
2023-01-02T06:59:17.334Z,57.62
2023-01-02T07:00:17.497Z,57.52
2023-01-02T07:01:17.740Z,57.72
2023-01-02T07:02:17.894Z,57.72
2023-01-02T07:03:18.008Z,57.72
2023-01-02T07:04:18.194Z,57.62
2023-01-02T07:05:22.775Z,57.52
2023-01-02T07:06:19.532Z,57.52
2023-01-02T07:07:18.698Z,57.52
2023-01-02T07:08:18.870Z,57.42
2023-01-02T07:09:19.143Z,57.72
2023-01-02T07:10:19.254Z,57.62
2023-01-02T07:11:19.447Z,57.72
2023-01-02T07:12:19.642Z,57.42
2023-01-02T07:13:19.808Z,57.62
2023-01-02T07:14:20.008Z,57.52
2023-01-02T07:15:20.193Z,57.62
2023-01-02T07:16:20.393Z,57.62
2023-01-02T07:17:20.510Z,57.72
2023-01-02T07:18:20.715Z,57.42
2023-01-02T07:19:20.869Z,57.12
2023-01-02T07:20:21.013Z,57.52
2023-01-02T07:21:21.223Z,57.62
2023-01-02T07:22:21.384Z,57.62
2023-01-02T07:23:21.569Z,57.42
2023-01-02T07:24:21.729Z,57.32
2023-01-02T07:25:21.902Z,57.52
2023-01-02T07:26:22.061Z,57.72
2023-01-02T07:27:22.252Z,57.72
2023-01-02T07:28:22.411Z,57.62
2023-01-02T07:29:22.593Z,57.52
2023-01-02T07:30:22.773Z,57.62
2023-01-02T07:31:22.990Z,57.32
2023-01-02T07:32:27.327Z,56.82
2023-01-02T07:33:23.286Z,57.32
2023-01-02T07:34:23.462Z,57.22
2023-01-02T07:35:23.640Z,57.42
2023-01-02T07:36:23.795Z,57.12
2023-01-02T07:37:23.969Z,56.82
2023-01-02T07:38:24.132Z,57.12
2023-01-02T07:39:24.492Z,57.32
2023-01-02T07:40:28.717Z,57.22
2023-01-02T07:41:25.641Z,57.42
2023-01-02T07:42:24.851Z,57.52
2023-01-02T07:43:25.017Z,57.52
2023-01-02T07:44:25.144Z,57.52
2023-01-02T07:45:25.382Z,57.32
2023-01-02T07:46:25.596Z,57.52
2023-01-02T07:47:25.691Z,57.62
2023-01-02T07:48:25.868Z,57.42
2023-01-02T07:49:26.050Z,57.22
2023-01-02T07:50:26.217Z,57.39
2023-01-02T07:51:27.573Z,57.42
2023-01-02T07:52:26.579Z,57.32
2023-01-02T07:53:26.719Z,57.09
2023-01-02T07:54:26.889Z,57.32
2023-01-02T07:55:27.051Z,57.02
2023-01-02T07:56:27.216Z,57.32
2023-01-02T07:57:27.402Z,57.39
2023-01-02T07:58:27.589Z,57.22
2023-01-02T07:59:27.752Z,57.42
2023-01-02T08:00:27.998Z,57.42
2023-01-02T08:01:28.213Z,57.12
2023-01-02T08:02:28.357Z,56.99
2023-01-02T08:03:28.443Z,57.29
2023-01-02T08:04:28.683Z,57.29
2023-01-02T08:05:28.806Z,56.99
2023-01-02T08:06:29.031Z,57.29
2023-01-02T08:07:29.135Z,57.29
2023-01-02T08:08:29.312Z,57.09
2023-01-02T08:09:29.446Z,57.09
2023-01-02T08:10:29.627Z,56.99
2023-01-02T08:11:29.873Z,57.09
2023-01-02T08:12:29.988Z,57.29
2023-01-02T08:13:30.177Z,57.09
2023-01-02T08:14:30.331Z,56.89
2023-01-02T08:15:30.523Z,57.29
2023-01-02T08:16:30.733Z,56.99
2023-01-02T08:17:30.870Z,57.29
2023-01-02T08:18:31.048Z,57.50
2023-01-02T08:19:31.241Z,57.09
2023-01-02T08:20:31.431Z,57.09
2023-01-02T08:21:31.572Z,56.99
2023-01-02T08:22:31.767Z,56.69
2023-01-02T08:23:31.958Z,57.09
2023-01-02T08:24:32.140Z,57.29
2023-01-02T08:25:32.327Z,56.79
2023-01-02T08:26:32.509Z,56.99
2023-01-02T08:27:32.710Z,56.99
2023-01-02T08:28:32.877Z,57.29
2023-01-02T08:29:33.062Z,56.99
2023-01-02T08:30:33.294Z,56.69
2023-01-02T08:31:33.405Z,57.09
2023-01-02T08:32:33.542Z,57.19
2023-01-02T08:33:33.713Z,56.76
2023-01-02T08:34:33.904Z,56.69
2023-01-02T08:35:38.408Z,57.09
2023-01-02T08:36:35.233Z,56.86
2023-01-02T08:37:34.403Z,56.69
2023-01-02T08:38:34.569Z,57.17
2023-01-02T08:39:34.789Z,56.16
2023-01-02T08:40:34.945Z,56.26
2023-01-02T08:41:35.107Z,56.36
2023-01-02T08:42:35.257Z,55.86
2023-01-02T08:43:35.481Z,55.79
2023-01-02T08:44:35.640Z,56.59
2023-01-02T08:45:35.769Z,56.79
2023-01-02T08:46:42.325Z,56.36
2023-01-02T08:47:37.125Z,55.88
2023-01-02T08:48:36.252Z,56.19
2023-01-02T08:49:36.443Z,56.06
2023-01-02T08:50:36.611Z,56.06
2023-01-02T08:51:36.778Z,55.96
2023-01-02T08:52:36.928Z,56.36
2023-01-02T08:53:37.126Z,55.96
2023-01-02T08:54:37.287Z,56.26
2023-01-02T08:55:37.468Z,55.76
2023-01-02T08:56:37.673Z,55.66
2023-01-02T08:57:37.791Z,55.96
2023-01-02T08:58:37.949Z,55.55
2023-01-02T08:59:38.171Z,55.55
2023-01-02T09:00:38.364Z,55.46
2023-01-02T09:01:38.571Z,55.26
2023-01-02T09:02:38.842Z,55.46
2023-01-02T09:03:38.870Z,55.55
2023-01-02T09:04:38.991Z,55.26
2023-01-02T09:05:39.174Z,55.35
2023-01-02T09:06:39.342Z,55.16
2023-01-02T09:07:39.544Z,55.66
2023-01-02T09:08:39.688Z,55.46
2023-01-02T09:09:39.899Z,55.66
2023-01-02T09:10:40.037Z,55.55
2023-01-02T09:11:40.240Z,55.35
2023-01-02T09:12:40.376Z,55.26
2023-01-02T09:13:40.577Z,55.16
2023-01-02T09:14:40.758Z,55.35
2023-01-02T09:15:40.956Z,55.05
2023-01-02T09:16:41.111Z,55.05
2023-01-02T09:17:41.279Z,55.16
2023-01-02T09:18:41.444Z,55.05
2023-01-02T09:19:41.607Z,55.35
2023-01-02T09:20:41.787Z,55.46
2023-01-02T09:21:41.961Z,55.46
2023-01-02T09:22:42.157Z,55.13
2023-01-02T09:23:42.309Z,55.23
2023-01-02T09:24:42.507Z,55.33
2023-01-02T09:25:42.648Z,55.53
2023-01-02T09:26:42.793Z,54.83
2023-01-02T09:27:42.949Z,54.93
2023-01-02T09:28:43.125Z,55.03
2023-01-02T09:29:43.316Z,54.90
2023-01-02T09:30:43.470Z,55.00
2023-01-02T09:31:43.720Z,54.70
2023-01-02T09:32:43.784Z,54.50
2023-01-02T09:33:43.980Z,55.00
2023-01-02T09:34:44.139Z,55.00
2023-01-02T09:35:44.331Z,54.40
2023-01-02T09:36:44.503Z,55.10
2023-01-02T09:37:44.653Z,55.18
2023-01-02T09:38:44.822Z,54.17
2023-01-02T09:39:45.024Z,54.97
2023-01-02T09:40:45.154Z,54.88
2023-01-02T09:41:45.359Z,54.68
2023-01-02T09:42:45.512Z,54.27
2023-01-02T09:43:45.677Z,54.47
2023-01-02T09:44:45.852Z,53.57
2023-01-02T09:45:46.048Z,54.38
2023-01-02T09:46:46.294Z,54.58
2023-01-02T09:47:46.408Z,54.55
2023-01-02T09:48:46.546Z,54.68
2023-01-02T09:49:46.746Z,54.65
2023-01-02T09:50:46.875Z,54.15
2023-01-02T09:51:47.032Z,54.25
2023-01-02T09:52:47.184Z,54.05
2023-01-02T09:53:47.379Z,53.14
2023-01-02T09:54:47.572Z,53.34
2023-01-02T09:55:47.704Z,53.64
2023-01-02T09:56:47.861Z,53.64
2023-01-02T09:57:48.037Z,54.35
2023-01-02T09:58:48.226Z,54.65
2023-01-02T09:59:48.384Z,54.45
2023-01-02T10:00:48.546Z,54.35
2023-01-02T10:01:48.786Z,54.65
2023-01-02T10:02:48.954Z,54.65
2023-01-02T10:03:49.099Z,54.15
2023-01-02T10:04:49.191Z,54.65
2023-01-02T10:05:49.379Z,54.55
2023-01-02T10:06:49.534Z,53.55
2023-01-02T10:07:49.703Z,53.64
2023-01-02T10:08:49.899Z,54.45
2023-01-02T10:09:50.045Z,53.05
2023-01-02T10:10:50.238Z,53.62
2023-01-02T10:11:50.403Z,53.52
2023-01-02T10:12:50.564Z,53.22
2023-01-02T10:14:18.126Z,53.62
2023-01-02T10:14:51.924Z,53.22
2023-01-02T10:15:51.144Z,53.62
2023-01-02T10:16:51.281Z,54.12
2023-01-02T10:17:51.450Z,53.32
2023-01-02T10:18:51.632Z,54.12
2023-01-02T10:19:51.801Z,53.42
2023-01-02T10:20:51.975Z,53.72
2023-01-02T10:21:52.169Z,54.22
2023-01-02T10:22:52.375Z,54.12
2023-01-02T10:23:52.528Z,54.22
2023-01-02T10:24:52.691Z,54.12
2023-01-02T10:25:53.177Z,53.72
2023-01-02T10:26:53.043Z,53.92
2023-01-02T10:27:53.193Z,53.32
2023-01-02T10:28:53.361Z,53.32
2023-01-02T10:29:53.525Z,54.02
2023-01-02T10:30:53.734Z,53.02
2023-01-02T10:31:53.924Z,53.02
2023-01-02T10:32:54.018Z,53.72
2023-01-02T10:33:54.156Z,53.72
2023-01-02T10:34:54.359Z,54.12
2023-01-02T10:35:54.531Z,55.32
2023-01-02T10:36:54.701Z,54.82
2023-01-02T10:37:54.876Z,56.33
2023-01-02T10:38:55.036Z,54.62
2023-01-02T10:39:55.200Z,56.02
2023-01-02T10:40:55.380Z,54.70
2023-01-02T10:41:55.524Z,53.72
2023-01-02T10:42:59.608Z,53.00
2023-01-02T10:43:55.838Z,53.19
2023-01-02T10:44:56.007Z,52.69
2023-01-02T10:45:56.169Z,53.50
2023-01-02T10:46:56.344Z,53.19
2023-01-02T10:47:56.512Z,52.59
2023-01-02T10:48:56.712Z,53.09
2023-01-02T10:49:56.838Z,52.49
2023-01-02T10:50:57.050Z,53.00
2023-01-02T10:51:57.190Z,52.69
2023-01-02T10:52:57.357Z,52.69
2023-01-02T10:53:57.575Z,52.49
2023-01-02T10:55:00.034Z,53.09
2023-01-02T10:55:57.864Z,52.59
2023-01-02T10:56:58.048Z,52.59
2023-01-02T10:57:58.195Z,53.69
2023-01-02T10:58:58.413Z,53.09
2023-01-02T10:59:58.548Z,52.69
2023-01-02T11:00:58.748Z,52.80
2023-01-02T11:01:58.966Z,53.19
2023-01-02T11:02:59.111Z,54.00
2023-01-02T11:03:59.226Z,53.80
2023-01-02T11:04:59.417Z,53.39
2023-01-02T11:06:23.237Z,53.50
2023-01-02T11:07:00.723Z,53.69
2023-01-02T11:07:59.902Z,53.59
2023-01-02T11:09:00.126Z,53.30
2023-01-02T11:10:00.216Z,53.72
2023-01-02T11:11:00.378Z,54.70
2023-01-02T11:12:00.542Z,55.20
2023-01-02T11:13:00.700Z,55.50
2023-01-02T11:14:00.891Z,55.10
2023-01-02T11:15:01.022Z,54.90
2023-01-02T11:16:01.289Z,54.70
2023-01-02T11:17:01.377Z,54.80
2023-01-02T11:18:01.526Z,55.20
2023-01-02T11:19:01.724Z,54.20
2023-01-02T11:20:01.893Z,54.60
2023-01-02T11:21:02.064Z,54.47
2023-01-02T11:22:02.232Z,54.37
2023-01-02T11:23:02.433Z,54.17
2023-01-02T11:24:02.602Z,54.87
2023-01-02T11:25:02.793Z,53.57
2023-01-02T11:26:02.959Z,54.47
2023-01-02T11:27:03.123Z,54.47
2023-01-02T11:28:03.306Z,54.47
2023-01-02T11:29:03.487Z,54.57
2023-01-02T11:30:03.666Z,54.07
2023-01-02T11:31:03.900Z,54.17
2023-01-02T11:32:04.144Z,54.17
2023-01-02T11:33:04.207Z,53.94
2023-01-02T11:34:04.360Z,53.97
2023-01-02T11:35:04.658Z,53.17
2023-01-02T11:36:04.717Z,53.85
2023-01-02T11:37:04.875Z,53.74
2023-01-02T11:38:05.041Z,53.74
2023-01-02T11:39:05.197Z,54.14
2023-01-02T11:40:05.440Z,54.24
2023-01-02T11:41:05.590Z,54.35
2023-01-02T11:42:05.735Z,53.55
2023-01-02T11:43:05.907Z,54.44
2023-01-02T11:44:06.059Z,54.44
2023-01-02T11:45:06.285Z,54.24
2023-01-02T11:46:06.504Z,53.55
2023-01-02T11:47:06.568Z,54.05
2023-01-02T11:48:06.740Z,53.64
2023-01-02T11:49:06.954Z,53.82
2023-01-02T11:50:07.117Z,54.02
2023-01-02T11:51:07.301Z,54.02
2023-01-02T11:52:07.474Z,53.52
2023-01-02T11:53:07.627Z,53.22
2023-01-02T11:54:07.787Z,53.02
2023-01-02T11:55:07.981Z,54.12
2023-01-02T11:56:08.180Z,54.32
2023-01-02T11:57:08.779Z,54.32
2023-01-02T11:58:08.511Z,53.92
2023-01-02T11:59:08.670Z,54.02
2023-01-02T12:00:08.842Z,54.52
2023-01-02T12:01:09.039Z,54.42
2023-01-02T12:02:09.218Z,54.22
2023-01-02T12:03:12.699Z,53.72
2023-01-02T12:04:10.542Z,53.30
2023-01-02T12:05:09.693Z,53.69
2023-01-02T12:06:09.856Z,53.69
2023-01-02T12:07:10.050Z,53.79
2023-01-02T12:08:10.217Z,53.39
2023-01-02T12:09:10.379Z,52.29
2023-01-02T12:10:10.569Z,51.59
2023-01-02T12:11:10.711Z,51.50
2023-01-02T12:12:10.886Z,50.89
2023-01-02T12:13:11.052Z,51.12
2023-01-02T12:14:11.218Z,51.62
2023-01-02T12:15:11.389Z,51.52
2023-01-02T12:16:11.618Z,51.62
2023-01-02T12:17:11.739Z,51.82
2023-01-02T12:18:11.896Z,51.82
2023-01-02T12:19:12.095Z,51.84
2023-01-02T12:20:12.268Z,52.04
2023-01-02T12:21:12.430Z,51.34
2023-01-02T12:22:12.585Z,51.34
2023-01-02T12:23:12.756Z,51.54
2023-01-02T12:24:12.970Z,51.25
2023-01-02T12:25:13.101Z,51.54
2023-01-02T12:26:13.247Z,51.57
2023-01-02T12:27:13.439Z,51.67
2023-01-02T12:28:13.622Z,52.27
2023-01-02T12:29:13.807Z,52.57
2023-01-02T12:30:15.032Z,52.47
2023-01-02T12:31:14.134Z,51.97
2023-01-02T12:32:14.324Z,51.67
2023-01-02T12:33:14.443Z,51.99
2023-01-02T12:34:14.635Z,51.79
2023-01-02T12:35:14.795Z,51.99
2023-01-02T12:36:14.974Z,52.29
2023-01-02T12:37:15.165Z,52.49
2023-01-02T12:38:21.016Z,52.49
2023-01-02T12:39:16.479Z,52.69
2023-01-02T12:40:15.820Z,53.09
2023-01-02T12:41:15.824Z,53.09
2023-01-02T12:42:16.007Z,53.19
2023-01-02T12:43:16.188Z,53.50
2023-01-02T12:44:16.376Z,53.50
2023-01-02T12:45:16.596Z,53.69
2023-01-02T12:46:16.732Z,53.89
2023-01-02T12:47:16.924Z,54.39
2023-01-02T12:48:17.089Z,54.32
2023-01-02T12:49:17.255Z,54.39
2023-01-02T12:50:17.440Z,54.10
2023-01-02T12:51:17.582Z,54.39
2023-01-02T12:52:17.761Z,54.10
2023-01-02T12:53:17.925Z,53.80
2023-01-02T12:54:19.783Z,53.89